sensor_id;sensor_type;location;lat;lon;timestamp;P1;durP1;ratioP1;P2;durP2;ratioP2
7432;SDS011;32233;49.500;7.764;2023-08-30T00:01:05;6.07;;;5.20;;
7432;SDS011;32233;49.500;7.764;2023-08-30T00:03:31;5.50;;;5.00;;
7432;SDS011;32233;49.500;7.764;2023-08-30T00:06:02;6.50;;;5.33;;
7432;SDS011;32233;49.500;7.764;2023-08-30T00:08:32;7.77;;;5.30;;
7432;SDS011;32233;49.500;7.764;2023-08-30T00:10:59;4.83;;;4.30;;
7432;SDS011;32233;49.500;7.764;2023-08-30T00:13:26;6.77;;;4.97;;
7432;SDS011;32233;49.500;7.764;2023-08-30T00:15:53;7.27;;;5.37;;
7432;SDS011;32233;49.500;7.764;2023-08-30T00:18:20;5.50;;;5.00;;
7432;SDS011;32233;49.500;7.764;2023-08-30T00:20:46;5.57;;;5.07;;
7432;SDS011;32233;49.500;7.764;2023-08-30T00:23:13;5.03;;;4.60;;
7432;SDS011;32233;49.500;7.764;2023-08-30T00:25:39;6.70;;;5.13;;
7432;SDS011;32233;49.500;7.764;2023-08-30T00:28:06;5.47;;;4.87;;
7432;SDS011;32233;49.500;7.764;2023-08-30T00:30:33;7.17;;;5.17;;
7432;SDS011;32233;49.500;7.764;2023-08-30T00:33:02;5.80;;;5.07;;
7432;SDS011;32233;49.500;7.764;2023-08-30T00:35:29;5.93;;;5.43;;
7432;SDS011;32233;49.500;7.764;2023-08-30T00:37:56;6.73;;;5.23;;
7432;SDS011;32233;49.500;7.764;2023-08-30T00:40:23;6.27;;;5.63;;
7432;SDS011;32233;49.500;7.764;2023-08-30T00:42:51;6.43;;;5.17;;
7432;SDS011;32233;49.500;7.764;2023-08-30T00:45:21;8.50;;;5.23;;
7432;SDS011;32233;49.500;7.764;2023-08-30T00:47:48;5.83;;;5.27;;
7432;SDS011;32233;49.500;7.764;2023-08-30T00:50:14;7.57;;;6.00;;
7432;SDS011;32233;49.500;7.764;2023-08-30T00:52:42;5.77;;;5.17;;
7432;SDS011;32233;49.500;7.764;2023-08-30T00:55:10;7.80;;;6.40;;
7432;SDS011;32233;49.500;7.764;2023-08-30T00:57:37;5.70;;;5.20;;
7432;SDS011;32233;49.500;7.764;2023-08-30T01:00:05;5.97;;;5.37;;
7432;SDS011;32233;49.500;7.764;2023-08-30T01:02:32;5.57;;;5.07;;
7432;SDS011;32233;49.500;7.764;2023-08-30T01:05:01;7.03;;;5.30;;
7432;SDS011;32233;49.500;7.764;2023-08-30T01:07:29;6.40;;;5.73;;
7432;SDS011;32233;49.500;7.764;2023-08-30T01:09:55;8.23;;;5.70;;
7432;SDS011;32233;49.500;7.764;2023-08-30T01:12:24;6.97;;;5.27;;
7432;SDS011;32233;49.500;7.764;2023-08-30T01:15:20;7.63;;;5.67;;
7432;SDS011;32233;49.500;7.764;2023-08-30T01:17:48;6.63;;;5.90;;
7432;SDS011;32233;49.500;7.764;2023-08-30T01:20:17;6.57;;;5.60;;
7432;SDS011;32233;49.500;7.764;2023-08-30T01:22:55;6.80;;;5.27;;
7432;SDS011;32233;49.500;7.764;2023-08-30T01:28:22;7.50;;;5.20;;
7432;SDS011;32233;49.500;7.764;2023-08-30T01:30:51;7.00;;;6.17;;
7432;SDS011;32233;49.500;7.764;2023-08-30T01:33:25;6.03;;;5.43;;
7432;SDS011;32233;49.500;7.764;2023-08-30T01:35:57;7.33;;;6.30;;
7432;SDS011;32233;49.500;7.764;2023-08-30T01:38:29;6.70;;;6.03;;
7432;SDS011;32233;49.500;7.764;2023-08-30T01:40:58;6.13;;;5.50;;
7432;SDS011;32233;49.500;7.764;2023-08-30T01:43:26;8.40;;;5.93;;
7432;SDS011;32233;49.500;7.764;2023-08-30T01:45:57;6.83;;;6.13;;
7432;SDS011;32233;49.500;7.764;2023-08-30T01:48:27;7.37;;;6.10;;
7432;SDS011;32233;49.500;7.764;2023-08-30T01:50:56;9.70;;;6.60;;
7432;SDS011;32233;49.500;7.764;2023-08-30T01:53:26;7.60;;;6.23;;
7432;SDS011;32233;49.500;7.764;2023-08-30T01:55:54;6.67;;;5.60;;
7432;SDS011;32233;49.500;7.764;2023-08-30T01:58:20;8.20;;;6.23;;
7432;SDS011;32233;49.500;7.764;2023-08-30T02:00:47;8.13;;;5.73;;
7432;SDS011;32233;49.500;7.764;2023-08-30T02:03:14;9.13;;;6.10;;
7432;SDS011;32233;49.500;7.764;2023-08-30T02:08:21;8.47;;;6.97;;
7432;SDS011;32233;49.500;7.764;2023-08-30T02:11:02;7.80;;;7.10;;
7432;SDS011;32233;49.500;7.764;2023-08-30T02:13:33;7.60;;;6.73;;
7432;SDS011;32233;49.500;7.764;2023-08-30T02:16:01;7.67;;;6.07;;
7432;SDS011;32233;49.500;7.764;2023-08-30T02:18:29;6.93;;;6.23;;
7432;SDS011;32233;49.500;7.764;2023-08-30T02:20:58;7.37;;;6.63;;
7432;SDS011;32233;49.500;7.764;2023-08-30T02:23:25;7.70;;;6.00;;
7432;SDS011;32233;49.500;7.764;2023-08-30T02:25:54;7.53;;;6.83;;
7432;SDS011;32233;49.500;7.764;2023-08-30T02:28:21;7.90;;;6.23;;
7432;SDS011;32233;49.500;7.764;2023-08-30T02:30:49;7.47;;;6.77;;
7432;SDS011;32233;49.500;7.764;2023-08-30T02:33:16;7.60;;;6.80;;
7432;SDS011;32233;49.500;7.764;2023-08-30T02:35:43;8.57;;;7.37;;
7432;SDS011;32233;49.500;7.764;2023-08-30T02:38:09;7.63;;;6.60;;
7432;SDS011;32233;49.500;7.764;2023-08-30T02:40:36;7.27;;;6.50;;
7432;SDS011;32233;49.500;7.764;2023-08-30T02:43:03;8.07;;;7.03;;
7432;SDS011;32233;49.500;7.764;2023-08-30T02:45:30;8.90;;;6.83;;
7432;SDS011;32233;49.500;7.764;2023-08-30T02:47:56;8.40;;;6.63;;
7432;SDS011;32233;49.500;7.764;2023-08-30T02:50:24;12.53;;;7.97;;
7432;SDS011;32233;49.500;7.764;2023-08-30T02:52:51;8.73;;;7.83;;
7432;SDS011;32233;49.500;7.764;2023-08-30T02:55:19;10.27;;;9.10;;
7432;SDS011;32233;49.500;7.764;2023-08-30T02:57:45;13.07;;;8.27;;
7432;SDS011;32233;49.500;7.764;2023-08-30T03:00:13;11.17;;;8.33;;
7432;SDS011;32233;49.500;7.764;2023-08-30T03:02:43;9.10;;;7.80;;
7432;SDS011;32233;49.500;7.764;2023-08-30T03:05:10;10.97;;;8.77;;
7432;SDS011;32233;49.500;7.764;2023-08-30T03:07:38;10.90;;;8.77;;
7432;SDS011;32233;49.500;7.764;2023-08-30T03:10:05;11.13;;;9.23;;
7432;SDS011;32233;49.500;7.764;2023-08-30T03:12:33;10.50;;;8.77;;
7432;SDS011;32233;49.500;7.764;2023-08-30T03:14:59;9.77;;;8.67;;
7432;SDS011;32233;49.500;7.764;2023-08-30T03:17:26;13.20;;;9.17;;
7432;SDS011;32233;49.500;7.764;2023-08-30T03:19:53;10.43;;;9.23;;
7432;SDS011;32233;49.500;7.764;2023-08-30T03:22:20;12.93;;;8.93;;
7432;SDS011;32233;49.500;7.764;2023-08-30T03:24:47;11.30;;;8.30;;
7432;SDS011;32233;49.500;7.764;2023-08-30T03:27:16;11.77;;;8.90;;
7432;SDS011;32233;49.500;7.764;2023-08-30T03:29:45;9.93;;;8.70;;
7432;SDS011;32233;49.500;7.764;2023-08-30T03:32:16;10.30;;;9.00;;
7432;SDS011;32233;49.500;7.764;2023-08-30T03:34:44;10.10;;;8.67;;
7432;SDS011;32233;49.500;7.764;2023-08-30T03:37:13;9.50;;;8.50;;
7432;SDS011;32233;49.500;7.764;2023-08-30T03:39:41;10.03;;;8.03;;
7432;SDS011;32233;49.500;7.764;2023-08-30T03:42:07;9.17;;;8.13;;
7432;SDS011;32233;49.500;7.764;2023-08-30T03:44:35;10.57;;;8.20;;
7432;SDS011;32233;49.500;7.764;2023-08-30T03:47:05;10.53;;;8.53;;
7432;SDS011;32233;49.500;7.764;2023-08-30T03:49:32;9.27;;;8.33;;
7432;SDS011;32233;49.500;7.764;2023-08-30T03:51:58;11.37;;;9.20;;
7432;SDS011;32233;49.500;7.764;2023-08-30T03:54:25;10.33;;;9.23;;
7432;SDS011;32233;49.500;7.764;2023-08-30T03:56:52;10.73;;;9.63;;
7432;SDS011;32233;49.500;7.764;2023-08-30T03:59:18;11.33;;;9.80;;
7432;SDS011;32233;49.500;7.764;2023-08-30T04:01:45;11.90;;;10.60;;
7432;SDS011;32233;49.500;7.764;2023-08-30T04:04:12;13.60;;;10.10;;
7432;SDS011;32233;49.500;7.764;2023-08-30T04:06:39;10.57;;;9.43;;
7432;SDS011;32233;49.500;7.764;2023-08-30T04:09:06;9.40;;;8.50;;
7432;SDS011;32233;49.500;7.764;2023-08-30T04:11:32;10.67;;;9.50;;
7432;SDS011;32233;49.500;7.764;2023-08-30T04:13:59;9.67;;;8.47;;
7432;SDS011;32233;49.500;7.764;2023-08-30T04:16:26;12.50;;;8.70;;
7432;SDS011;32233;49.500;7.764;2023-08-30T04:18:53;10.67;;;9.00;;
7432;SDS011;32233;49.500;7.764;2023-08-30T04:21:20;9.87;;;8.87;;
7432;SDS011;32233;49.500;7.764;2023-08-30T04:23:46;9.17;;;8.13;;
7432;SDS011;32233;49.500;7.764;2023-08-30T04:26:13;8.87;;;7.70;;
7432;SDS011;32233;49.500;7.764;2023-08-30T04:28:39;9.97;;;8.83;;
7432;SDS011;32233;49.500;7.764;2023-08-30T04:31:06;11.73;;;8.30;;
7432;SDS011;32233;49.500;7.764;2023-08-30T04:33:33;14.30;;;8.77;;
7432;SDS011;32233;49.500;7.764;2023-08-30T04:36:01;10.10;;;8.53;;
7432;SDS011;32233;49.500;7.764;2023-08-30T04:38:31;13.23;;;10.70;;
7432;SDS011;32233;49.500;7.764;2023-08-30T04:40:58;12.33;;;10.37;;
7432;SDS011;32233;49.500;7.764;2023-08-30T04:43:32;12.47;;;10.57;;
7432;SDS011;32233;49.500;7.764;2023-08-30T04:45:59;13.80;;;10.93;;
7432;SDS011;32233;49.500;7.764;2023-08-30T04:48:26;11.83;;;10.20;;
7432;SDS011;32233;49.500;7.764;2023-08-30T04:51:03;12.97;;;10.83;;
7432;SDS011;32233;49.500;7.764;2023-08-30T04:53:30;12.43;;;10.33;;
7432;SDS011;32233;49.500;7.764;2023-08-30T04:55:57;13.13;;;10.77;;
7432;SDS011;32233;49.500;7.764;2023-08-30T04:58:27;13.50;;;11.47;;
7432;SDS011;32233;49.500;7.764;2023-08-30T05:00:56;14.07;;;9.83;;
7432;SDS011;32233;49.500;7.764;2023-08-30T05:03:23;10.50;;;9.03;;
7432;SDS011;32233;49.500;7.764;2023-08-30T05:05:50;10.07;;;8.97;;
7432;SDS011;32233;49.500;7.764;2023-08-30T05:08:17;9.70;;;8.70;;
7432;SDS011;32233;49.500;7.764;2023-08-30T05:10:43;10.33;;;9.23;;
7432;SDS011;32233;49.500;7.764;2023-08-30T05:13:11;14.83;;;11.30;;
7432;SDS011;32233;49.500;7.764;2023-08-30T05:15:37;22.30;;;15.83;;
7432;SDS011;32233;49.500;7.764;2023-08-30T05:18:04;26.27;;;17.97;;
7432;SDS011;32233;49.500;7.764;2023-08-30T05:20:31;30.83;;;20.70;;
7432;SDS011;32233;49.500;7.764;2023-08-30T05:22:57;29.07;;;19.50;;
7432;SDS011;32233;49.500;7.764;2023-08-30T05:25:24;28.87;;;19.23;;
7432;SDS011;32233;49.500;7.764;2023-08-30T05:27:51;25.70;;;18.20;;
7432;SDS011;32233;49.500;7.764;2023-08-30T05:30:17;33.57;;;21.07;;
7432;SDS011;32233;49.500;7.764;2023-08-30T05:32:44;33.67;;;20.63;;
7432;SDS011;32233;49.500;7.764;2023-08-30T05:35:27;34.67;;;21.77;;
7432;SDS011;32233;49.500;7.764;2023-08-30T05:38:08;31.90;;;21.20;;
7432;SDS011;32233;49.500;7.764;2023-08-30T05:40:58;36.83;;;22.67;;
7432;SDS011;32233;49.500;7.764;2023-08-30T05:43:25;39.37;;;25.07;;
7432;SDS011;32233;49.500;7.764;2023-08-30T05:45:52;41.63;;;25.30;;
7432;SDS011;32233;49.500;7.764;2023-08-30T05:48:19;40.87;;;24.57;;
7432;SDS011;32233;49.500;7.764;2023-08-30T05:50:46;40.67;;;25.27;;
7432;SDS011;32233;49.500;7.764;2023-08-30T05:53:12;37.70;;;25.20;;
7432;SDS011;32233;49.500;7.764;2023-08-30T05:55:39;37.90;;;23.80;;
7432;SDS011;32233;49.500;7.764;2023-08-30T05:58:05;39.37;;;24.57;;
7432;SDS011;32233;49.500;7.764;2023-08-30T06:00:34;41.07;;;24.93;;
7432;SDS011;32233;49.500;7.764;2023-08-30T06:03:04;43.27;;;26.50;;
7432;SDS011;32233;49.500;7.764;2023-08-30T06:05:30;49.07;;;27.30;;
7432;SDS011;32233;49.500;7.764;2023-08-30T06:08:01;40.50;;;25.40;;
7432;SDS011;32233;49.500;7.764;2023-08-30T06:10:29;37.50;;;25.57;;
7432;SDS011;32233;49.500;7.764;2023-08-30T06:12:57;37.27;;;24.23;;
7432;SDS011;32233;49.500;7.764;2023-08-30T06:15:24;39.90;;;24.80;;
7432;SDS011;32233;49.500;7.764;2023-08-30T06:17:53;43.03;;;25.77;;
7432;SDS011;32233;49.500;7.764;2023-08-30T06:25:04;37.43;;;23.07;;
7432;SDS011;32233;49.500;7.764;2023-08-30T06:27:16;43.13;;;25.57;;
7432;SDS011;32233;49.500;7.764;2023-08-30T06:29:57;41.03;;;25.33;;
7432;SDS011;32233;49.500;7.764;2023-08-30T06:32:25;45.17;;;26.83;;
7432;SDS011;32233;49.500;7.764;2023-08-30T06:34:52;39.67;;;25.13;;
7432;SDS011;32233;49.500;7.764;2023-08-30T06:37:22;44.30;;;26.17;;
7432;SDS011;32233;49.500;7.764;2023-08-30T06:39:48;42.70;;;25.40;;
7432;SDS011;32233;49.500;7.764;2023-08-30T06:42:15;39.97;;;24.70;;
7432;SDS011;32233;49.500;7.764;2023-08-30T06:44:42;40.93;;;25.20;;
7432;SDS011;32233;49.500;7.764;2023-08-30T06:47:09;41.73;;;25.83;;
7432;SDS011;32233;49.500;7.764;2023-08-30T06:49:35;40.03;;;26.20;;
7432;SDS011;32233;49.500;7.764;2023-08-30T06:52:02;41.43;;;25.37;;
7432;SDS011;32233;49.500;7.764;2023-08-30T06:54:32;45.80;;;27.10;;
7432;SDS011;32233;49.500;7.764;2023-08-30T06:57:00;41.60;;;26.90;;
7432;SDS011;32233;49.500;7.764;2023-08-30T06:59:27;45.00;;;26.40;;
7432;SDS011;32233;49.500;7.764;2023-08-30T07:01:54;42.20;;;26.07;;
7432;SDS011;32233;49.500;7.764;2023-08-30T07:04:21;45.60;;;26.57;;
7432;SDS011;32233;49.500;7.764;2023-08-30T07:06:47;43.43;;;25.47;;
7432;SDS011;32233;49.500;7.764;2023-08-30T07:09:14;43.33;;;26.53;;
7432;SDS011;32233;49.500;7.764;2023-08-30T07:11:42;40.77;;;25.93;;
7432;SDS011;32233;49.500;7.764;2023-08-30T07:14:12;39.60;;;24.53;;
7432;SDS011;32233;49.500;7.764;2023-08-30T07:16:40;40.00;;;24.87;;
7432;SDS011;32233;49.500;7.764;2023-08-30T07:19:07;39.77;;;24.17;;
7432;SDS011;32233;49.500;7.764;2023-08-30T07:21:34;41.17;;;24.30;;
7432;SDS011;32233;49.500;7.764;2023-08-30T07:24:05;37.80;;;22.83;;
7432;SDS011;32233;49.500;7.764;2023-08-30T07:26:33;41.03;;;24.70;;
7432;SDS011;32233;49.500;7.764;2023-08-30T07:28:59;38.30;;;23.97;;
7432;SDS011;32233;49.500;7.764;2023-08-30T07:31:26;35.80;;;23.27;;
7432;SDS011;32233;49.500;7.764;2023-08-30T07:33:53;33.00;;;23.03;;
7432;SDS011;32233;49.500;7.764;2023-08-30T07:36:19;35.10;;;22.73;;
7432;SDS011;32233;49.500;7.764;2023-08-30T07:38:49;34.90;;;21.97;;
7432;SDS011;32233;49.500;7.764;2023-08-30T07:41:15;32.73;;;22.17;;
7432;SDS011;32233;49.500;7.764;2023-08-30T07:43:42;32.83;;;21.43;;
7432;SDS011;32233;49.500;7.764;2023-08-30T07:46:09;35.33;;;22.30;;
7432;SDS011;32233;49.500;7.764;2023-08-30T07:48:36;33.10;;;21.33;;
7432;SDS011;32233;49.500;7.764;2023-08-30T07:51:02;35.37;;;22.67;;
7432;SDS011;32233;49.500;7.764;2023-08-30T07:53:29;35.03;;;22.73;;
7432;SDS011;32233;49.500;7.764;2023-08-30T07:55:55;33.60;;;22.77;;
7432;SDS011;32233;49.500;7.764;2023-08-30T07:58:22;34.73;;;23.00;;
7432;SDS011;32233;49.500;7.764;2023-08-30T08:00:52;37.03;;;22.77;;
7432;SDS011;32233;49.500;7.764;2023-08-30T08:03:20;34.57;;;22.63;;
7432;SDS011;32233;49.500;7.764;2023-08-30T08:05:48;36.03;;;24.57;;
7432;SDS011;32233;49.500;7.764;2023-08-30T08:08:14;34.67;;;22.13;;
7432;SDS011;32233;49.500;7.764;2023-08-30T08:10:42;31.97;;;22.43;;
7432;SDS011;32233;49.500;7.764;2023-08-30T08:13:09;33.87;;;21.90;;
7432;SDS011;32233;49.500;7.764;2023-08-30T08:15:37;32.80;;;22.33;;
7432;SDS011;32233;49.500;7.764;2023-08-30T08:18:03;33.87;;;21.87;;
7432;SDS011;32233;49.500;7.764;2023-08-30T08:20:30;29.30;;;20.73;;
7432;SDS011;32233;49.500;7.764;2023-08-30T08:22:57;31.77;;;20.80;;
7432;SDS011;32233;49.500;7.764;2023-08-30T08:25:24;32.57;;;21.30;;
7432;SDS011;32233;49.500;7.764;2023-08-30T08:27:50;30.73;;;21.20;;
7432;SDS011;32233;49.500;7.764;2023-08-30T08:30:17;29.63;;;20.33;;
7432;SDS011;32233;49.500;7.764;2023-08-30T08:32:45;31.60;;;19.93;;
7432;SDS011;32233;49.500;7.764;2023-08-30T08:35:13;25.07;;;17.50;;
7432;SDS011;32233;49.500;7.764;2023-08-30T08:37:39;27.47;;;19.13;;
7432;SDS011;32233;49.500;7.764;2023-08-30T08:40:06;27.00;;;19.17;;
7432;SDS011;32233;49.500;7.764;2023-08-30T08:42:36;29.50;;;19.70;;
7432;SDS011;32233;49.500;7.764;2023-08-30T08:45:04;27.00;;;19.47;;
7432;SDS011;32233;49.500;7.764;2023-08-30T08:47:31;27.97;;;18.40;;
7432;SDS011;32233;49.500;7.764;2023-08-30T08:49:57;28.97;;;17.67;;
7432;SDS011;32233;49.500;7.764;2023-08-30T08:52:26;25.13;;;16.50;;
7432;SDS011;32233;49.500;7.764;2023-08-30T08:55:01;23.00;;;16.03;;
7432;SDS011;32233;49.500;7.764;2023-08-30T08:57:29;23.07;;;15.80;;
7432;SDS011;32233;49.500;7.764;2023-08-30T08:59:58;21.30;;;16.37;;
7432;SDS011;32233;49.500;7.764;2023-08-30T09:02:24;22.43;;;15.23;;
7432;SDS011;32233;49.500;7.764;2023-08-30T09:04:52;21.87;;;15.27;;
7432;SDS011;32233;49.500;7.764;2023-08-30T09:07:19;20.70;;;14.57;;
7432;SDS011;32233;49.500;7.764;2023-08-30T09:09:46;18.77;;;13.83;;
7432;SDS011;32233;49.500;7.764;2023-08-30T09:12:13;19.20;;;13.83;;
7432;SDS011;32233;49.500;7.764;2023-08-30T09:14:40;16.03;;;11.90;;
7432;SDS011;32233;49.500;7.764;2023-08-30T09:17:07;14.97;;;11.57;;
7432;SDS011;32233;49.500;7.764;2023-08-30T09:19:33;15.53;;;12.53;;
7432;SDS011;32233;49.500;7.764;2023-08-30T09:22:00;15.40;;;12.93;;
7432;SDS011;32233;49.500;7.764;2023-08-30T09:24:37;14.40;;;12.07;;
7432;SDS011;32233;49.500;7.764;2023-08-30T09:27:06;14.50;;;12.27;;
7432;SDS011;32233;49.500;7.764;2023-08-30T09:29:34;12.07;;;10.87;;
7432;SDS011;32233;49.500;7.764;2023-08-30T09:32:00;12.10;;;10.90;;
7432;SDS011;32233;49.500;7.764;2023-08-30T09:34:27;12.53;;;11.33;;
7432;SDS011;32233;49.500;7.764;2023-08-30T09:36:54;12.33;;;10.93;;
7432;SDS011;32233;49.500;7.764;2023-08-30T09:39:21;11.90;;;10.70;;
7432;SDS011;32233;49.500;7.764;2023-08-30T09:41:48;10.70;;;9.77;;
7432;SDS011;32233;49.500;7.764;2023-08-30T09:44:17;9.63;;;8.73;;
7432;SDS011;32233;49.500;7.764;2023-08-30T09:46:45;9.83;;;8.93;;
7432;SDS011;32233;49.500;7.764;2023-08-30T09:49:20;9.97;;;9.00;;
7432;SDS011;32233;49.500;7.764;2023-08-30T09:51:49;9.43;;;8.50;;
7432;SDS011;32233;49.500;7.764;2023-08-30T09:54:19;10.53;;;9.10;;
7432;SDS011;32233;49.500;7.764;2023-08-30T09:56:52;9.27;;;8.37;;
7432;SDS011;32233;49.500;7.764;2023-08-30T09:59:22;8.97;;;8.17;;
7432;SDS011;32233;49.500;7.764;2023-08-30T10:01:49;7.70;;;7.10;;
7432;SDS011;32233;49.500;7.764;2023-08-30T10:04:19;7.50;;;6.80;;
7432;SDS011;32233;49.500;7.764;2023-08-30T10:06:46;7.30;;;6.60;;
7432;SDS011;32233;49.500;7.764;2023-08-30T10:09:14;7.10;;;6.13;;
7432;SDS011;32233;49.500;7.764;2023-08-30T10:11:45;6.53;;;6.00;;
7432;SDS011;32233;49.500;7.764;2023-08-30T10:14:13;7.00;;;6.30;;
7432;SDS011;32233;49.500;7.764;2023-08-30T10:16:41;6.93;;;6.23;;
7432;SDS011;32233;49.500;7.764;2023-08-30T10:19:29;5.90;;;5.40;;
7432;SDS011;32233;49.500;7.764;2023-08-30T10:22:04;5.87;;;5.33;;
7432;SDS011;32233;49.500;7.764;2023-08-30T10:24:41;5.93;;;5.33;;
7432;SDS011;32233;49.500;7.764;2023-08-30T10:27:34;5.53;;;4.67;;
7432;SDS011;32233;49.500;7.764;2023-08-30T10:30:03;6.03;;;5.57;;
7432;SDS011;32233;49.500;7.764;2023-08-30T10:32:37;5.60;;;5.10;;
7432;SDS011;32233;49.500;7.764;2023-08-30T10:35:05;6.37;;;5.50;;
7432;SDS011;32233;49.500;7.764;2023-08-30T10:37:32;6.83;;;6.20;;
7432;SDS011;32233;49.500;7.764;2023-08-30T10:40:03;6.53;;;5.93;;
7432;SDS011;32233;49.500;7.764;2023-08-30T10:42:33;11.37;;;9.13;;
7432;SDS011;32233;49.500;7.764;2023-08-30T10:45:01;10.43;;;8.83;;
7432;SDS011;32233;49.500;7.764;2023-08-30T10:47:35;12.00;;;9.77;;
7432;SDS011;32233;49.500;7.764;2023-08-30T10:50:05;9.53;;;8.23;;
7432;SDS011;32233;49.500;7.764;2023-08-30T10:52:37;8.40;;;7.57;;
7432;SDS011;32233;49.500;7.764;2023-08-30T10:55:04;7.17;;;6.57;;
7432;SDS011;32233;49.500;7.764;2023-08-30T10:57:35;7.10;;;6.40;;
7432;SDS011;32233;49.500;7.764;2023-08-30T11:00:10;7.03;;;6.33;;
7432;SDS011;32233;49.500;7.764;2023-08-30T11:02:52;5.97;;;5.47;;
7432;SDS011;32233;49.500;7.764;2023-08-30T11:05:21;5.43;;;4.93;;
7432;SDS011;32233;49.500;7.764;2023-08-30T11:07:51;4.60;;;4.27;;
7432;SDS011;32233;49.500;7.764;2023-08-30T11:10:18;4.77;;;4.30;;
7432;SDS011;32233;49.500;7.764;2023-08-30T11:12:46;4.07;;;3.77;;
7432;SDS011;32233;49.500;7.764;2023-08-30T11:15:15;4.83;;;4.30;;
7432;SDS011;32233;49.500;7.764;2023-08-30T11:17:42;6.23;;;3.87;;
7432;SDS011;32233;49.500;7.764;2023-08-30T11:20:13;5.63;;;3.60;;
7432;SDS011;32233;49.500;7.764;2023-08-30T11:22:43;3.80;;;3.50;;
7432;SDS011;32233;49.500;7.764;2023-08-30T11:25:12;5.00;;;3.70;;
7432;SDS011;32233;49.500;7.764;2023-08-30T11:27:40;6.37;;;3.47;;
7432;SDS011;32233;49.500;7.764;2023-08-30T11:30:07;3.40;;;3.20;;
7432;SDS011;32233;49.500;7.764;2023-08-30T11:32:35;4.23;;;3.83;;
7432;SDS011;32233;49.500;7.764;2023-08-30T11:35:03;4.23;;;3.53;;
7432;SDS011;32233;49.500;7.764;2023-08-30T11:37:31;3.73;;;3.43;;
7432;SDS011;32233;49.500;7.764;2023-08-30T11:39:59;5.50;;;3.47;;
7432;SDS011;32233;49.500;7.764;2023-08-30T11:42:27;3.53;;;3.23;;
7432;SDS011;32233;49.500;7.764;2023-08-30T11:44:54;3.60;;;3.13;;
7432;SDS011;32233;49.500;7.764;2023-08-30T11:47:22;4.43;;;3.40;;
7432;SDS011;32233;49.500;7.764;2023-08-30T11:49:52;3.20;;;3.00;;
7432;SDS011;32233;49.500;7.764;2023-08-30T11:52:22;3.13;;;2.93;;
7432;SDS011;32233;49.500;7.764;2023-08-30T11:54:52;3.40;;;3.10;;
7432;SDS011;32233;49.500;7.764;2023-08-30T11:57:19;4.83;;;3.53;;
7432;SDS011;32233;49.500;7.764;2023-08-30T11:59:47;4.53;;;3.17;;
7432;SDS011;32233;49.500;7.764;2023-08-30T12:02:15;3.17;;;2.97;;
7432;SDS011;32233;49.500;7.764;2023-08-30T12:04:46;3.67;;;3.38;;
7432;SDS011;32233;49.500;7.764;2023-08-30T12:07:21;5.22;;;3.00;;
7432;SDS011;32233;49.500;7.764;2023-08-30T12:09:52;4.43;;;2.83;;
7432;SDS011;32233;49.500;7.764;2023-08-30T12:12:30;5.25;;;2.75;;
7432;SDS011;32233;49.500;7.764;2023-08-30T12:14:57;3.87;;;2.70;;
7432;SDS011;32233;49.500;7.764;2023-08-30T12:17:24;3.13;;;2.53;;
7432;SDS011;32233;49.500;7.764;2023-08-30T12:19:57;3.00;;;2.80;;
7432;SDS011;32233;49.500;7.764;2023-08-30T12:22:40;3.57;;;2.53;;
7432;SDS011;32233;49.500;7.764;2023-08-30T12:25:20;4.20;;;2.53;;
7432;SDS011;32233;49.500;7.764;2023-08-30T12:27:49;2.70;;;2.50;;
7432;SDS011;32233;49.500;7.764;2023-08-30T12:30:16;3.53;;;2.67;;
7432;SDS011;32233;49.500;7.764;2023-08-30T12:32:44;2.40;;;2.20;;
7432;SDS011;32233;49.500;7.764;2023-08-30T12:35:14;3.90;;;2.43;;
7432;SDS011;32233;49.500;7.764;2023-08-30T12:37:41;3.13;;;2.83;;
7432;SDS011;32233;49.500;7.764;2023-08-30T12:40:08;4.23;;;2.70;;
7432;SDS011;32233;49.500;7.764;2023-08-30T12:42:35;2.97;;;2.50;;
7432;SDS011;32233;49.500;7.764;2023-08-30T12:45:02;4.27;;;3.07;;
7432;SDS011;32233;49.500;7.764;2023-08-30T12:47:29;2.80;;;2.57;;
7432;SDS011;32233;49.500;7.764;2023-08-30T12:49:56;5.30;;;2.80;;
7432;SDS011;32233;49.500;7.764;2023-08-30T12:52:23;2.63;;;2.43;;
7432;SDS011;32233;49.500;7.764;2023-08-30T12:54:49;4.30;;;2.83;;
7432;SDS011;32233;49.500;7.764;2023-08-30T12:57:18;4.17;;;3.10;;
7432;SDS011;32233;49.500;7.764;2023-08-30T12:59:45;3.50;;;2.30;;
7432;SDS011;32233;49.500;7.764;2023-08-30T13:02:11;3.73;;;2.50;;
7432;SDS011;32233;49.500;7.764;2023-08-30T13:04:38;2.97;;;2.33;;
7432;SDS011;32233;49.500;7.764;2023-08-30T13:07:05;2.97;;;2.20;;
7432;SDS011;32233;49.500;7.764;2023-08-30T13:09:31;2.67;;;2.10;;
7432;SDS011;32233;49.500;7.764;2023-08-30T13:11:58;2.80;;;2.60;;
7432;SDS011;32233;49.500;7.764;2023-08-30T13:14:25;4.97;;;2.00;;
7432;SDS011;32233;49.500;7.764;2023-08-30T13:16:51;3.20;;;2.27;;
7432;SDS011;32233;49.500;7.764;2023-08-30T13:19:18;2.57;;;2.27;;
7432;SDS011;32233;49.500;7.764;2023-08-30T13:21:45;4.43;;;2.40;;
7432;SDS011;32233;49.500;7.764;2023-08-30T13:24:11;3.40;;;2.43;;
7432;SDS011;32233;49.500;7.764;2023-08-30T13:26:38;2.23;;;1.80;;
7432;SDS011;32233;49.500;7.764;2023-08-30T13:29:05;2.03;;;1.50;;
7432;SDS011;32233;49.500;7.764;2023-08-30T13:31:31;3.20;;;2.10;;
7432;SDS011;32233;49.500;7.764;2023-08-30T13:33:58;2.73;;;1.97;;
7432;SDS011;32233;49.500;7.764;2023-08-30T13:36:25;3.47;;;2.10;;
7432;SDS011;32233;49.500;7.764;2023-08-30T13:38:52;2.40;;;2.20;;
7432;SDS011;32233;49.500;7.764;2023-08-30T13:41:19;2.47;;;1.90;;
7432;SDS011;32233;49.500;7.764;2023-08-30T13:43:46;2.63;;;1.90;;
7432;SDS011;32233;49.500;7.764;2023-08-30T13:46:12;4.00;;;2.23;;
7432;SDS011;32233;49.500;7.764;2023-08-30T13:48:39;2.97;;;1.83;;
7432;SDS011;32233;49.500;7.764;2023-08-30T13:51:05;2.13;;;2.00;;
7432;SDS011;32233;49.500;7.764;2023-08-30T13:53:32;2.27;;;2.07;;
7432;SDS011;32233;49.500;7.764;2023-08-30T13:55:58;2.90;;;2.70;;
7432;SDS011;32233;49.500;7.764;2023-08-30T13:58:25;5.07;;;2.00;;
7432;SDS011;32233;49.500;7.764;2023-08-30T14:00:51;3.60;;;1.90;;
7432;SDS011;32233;49.500;7.764;2023-08-30T14:03:18;2.23;;;1.90;;
7432;SDS011;32233;49.500;7.764;2023-08-30T14:05:44;3.87;;;1.90;;
7432;SDS011;32233;49.500;7.764;2023-08-30T14:08:11;2.43;;;2.23;;
7432;SDS011;32233;49.500;7.764;2023-08-30T14:10:38;2.60;;;1.87;;
7432;SDS011;32233;49.500;7.764;2023-08-30T14:13:04;2.27;;;1.97;;
7432;SDS011;32233;49.500;7.764;2023-08-30T14:15:31;3.47;;;2.00;;
7432;SDS011;32233;49.500;7.764;2023-08-30T14:17:58;4.67;;;2.00;;
7432;SDS011;32233;49.500;7.764;2023-08-30T14:20:25;6.23;;;2.00;;
7432;SDS011;32233;49.500;7.764;2023-08-30T14:22:52;2.50;;;2.30;;
7432;SDS011;32233;49.500;7.764;2023-08-30T14:25:18;2.23;;;2.03;;
7432;SDS011;32233;49.500;7.764;2023-08-30T14:27:45;2.90;;;2.23;;
7432;SDS011;32233;49.500;7.764;2023-08-30T14:30:12;2.97;;;2.27;;
7432;SDS011;32233;49.500;7.764;2023-08-30T14:32:38;3.17;;;2.10;;
7432;SDS011;32233;49.500;7.764;2023-08-30T14:35:05;3.83;;;2.20;;
7432;SDS011;32233;49.500;7.764;2023-08-30T14:37:32;2.13;;;1.90;;
7432;SDS011;32233;49.500;7.764;2023-08-30T14:40:02;4.83;;;2.50;;
7432;SDS011;32233;49.500;7.764;2023-08-30T14:42:30;3.03;;;1.80;;
7432;SDS011;32233;49.500;7.764;2023-08-30T14:44:58;2.90;;;2.17;;
7432;SDS011;32233;49.500;7.764;2023-08-30T14:47:25;3.47;;;2.20;;
7432;SDS011;32233;49.500;7.764;2023-08-30T14:49:52;3.57;;;2.23;;
7432;SDS011;32233;49.500;7.764;2023-08-30T14:52:18;3.80;;;2.63;;
7432;SDS011;32233;49.500;7.764;2023-08-30T14:54:45;3.20;;;2.00;;
7432;SDS011;32233;49.500;7.764;2023-08-30T14:57:11;3.13;;;2.33;;
7432;SDS011;32233;49.500;7.764;2023-08-30T14:59:38;3.10;;;2.10;;
7432;SDS011;32233;49.500;7.764;2023-08-30T15:02:04;4.00;;;2.33;;
7432;SDS011;32233;49.500;7.764;2023-08-30T15:04:32;4.50;;;2.47;;
7432;SDS011;32233;49.500;7.764;2023-08-30T15:06:58;2.40;;;2.20;;